Time;durP1;ratioP1;P1;durP2;ratioP2;P2;SDS_P1;SDS_P2;PMS_P1;PMS_P2;Temp;Humidity;BMP_temperature;BMP_pressure;BME280_temperature;BME280_humidity;BME280_pressure;Samples;Min_cycle;Max_cycle;Signal;HPM_P1;HPM_P2
2021/12/27 00:01:06;;;;;;;28.90;15.97;;;;;;;3.44;100.00;95101.34;4996621;28;20025;-74
2021/12/27 00:03:32;;;;;;;25.80;14.27;;;;;;;3.54;100.00;95098.69;5014671;28;20116;-73
2021/12/27 00:05:58;;;;;;;23.70;15.23;;;;;;;3.64;100.00;95088.25;5030047;28;20869;-74
2021/12/27 00:08:24;;;;;;;26.40;14.47;;;;;;;3.74;100.00;95096.81;5004867;28;20119;-74
2021/12/27 00:10:50;;;;;;;23.40;13.10;;;;;;;3.81;100.00;95094.47;5007943;28;20405;-74
2021/12/27 00:13:16;;;;;;;21.23;13.10;;;;;;;3.86;100.00;95085.25;5014715;28;20133;-74
2021/12/27 00:15:43;;;;;;;21.73;13.50;;;;;;;3.90;100.00;95091.00;5006743;28;20488;-74
2021/12/27 00:18:10;;;;;;;21.30;13.23;;;;;;;3.92;100.00;95083.84;5020637;28;20661;-74
2021/12/27 00:20:36;;;;;;;25.40;13.27;;;;;;;3.96;100.00;95085.22;5006572;28;20032;-74
2021/12/27 00:23:02;;;;;;;24.47;13.27;;;;;;;3.94;100.00;95090.53;5028601;28;20055;-75
2021/12/27 00:25:29;;;;;;;23.70;12.13;;;;;;;4.00;100.00;95082.16;5026839;28;20082;-74
2021/12/27 00:27:57;;;;;;;24.47;12.87;;;;;;;3.99;100.00;95090.09;5021492;28;20033;-74
2021/12/27 00:30:23;;;;;;;21.33;13.27;;;;;;;3.94;100.00;95077.53;5018293;28;20091;-75
2021/12/27 00:32:49;;;;;;;22.00;12.37;;;;;;;3.94;100.00;95077.53;5039917;28;20033;-74
2021/12/27 00:35:17;;;;;;;21.87;12.20;;;;;;;3.93;100.00;95081.13;5026459;28;20024;-74
2021/12/27 00:37:44;;;;;;;20.73;11.37;;;;;;;3.91;100.00;95075.22;5047934;28;20144;-74
2021/12/27 00:40:14;;;;;;;19.93;12.10;;;;;;;3.90;100.00;95067.59;5037682;28;20079;-75
2021/12/27 00:42:40;;;;;;;20.90;12.57;;;;;;;3.94;100.00;95076.72;5035030;28;20029;-75
2021/12/27 00:45:06;;;;;;;22.23;11.73;;;;;;;3.98;100.00;95073.66;5029877;28;20028;-75
2021/12/27 00:47:33;;;;;;;21.90;12.57;;;;;;;4.03;100.00;95077.63;4995032;28;20035;-74
2021/12/27 00:49:59;;;;;;;18.23;11.43;;;;;;;3.98;100.00;95075.47;5023380;28;20029;-74
2021/12/27 00:52:26;;;;;;;19.63;11.90;;;;;;;4.01;100.00;95080.38;5013874;28;20099;-74
2021/12/27 00:54:51;;;;;;;19.27;10.97;;;;;;;4.00;100.00;95079.56;5011706;28;20043;-74
2021/12/27 00:57:17;;;;;;;19.40;11.63;;;;;;;4.10;100.00;95081.28;5029681;28;20740;-74
2021/12/27 00:59:43;;;;;;;19.80;11.40;;;;;;;4.09;100.00;95075.25;5047416;28;20029;-75
2021/12/27 01:02:09;;;;;;;19.13;11.70;;;;;;;4.10;100.00;95066.47;5018849;28;20025;-73
2021/12/27 01:04:34;;;;;;;19.37;11.73;;;;;;;4.08;100.00;95075.41;5027884;28;20044;-74
2021/12/27 01:07:00;;;;;;;19.73;12.47;;;;;;;4.08;100.00;95071.00;5023168;28;20057;-74
2021/12/27 01:17:51;;;;;;;19.03;11.70;;;;;;;4.21;100.00;95068.03;4977435;28;20041;-74
2021/12/27 01:20:20;;;;;;;19.47;11.80;;;;;;;4.16;100.00;95065.09;5016899;28;20193;-75
2021/12/27 01:22:46;;;;;;;19.87;12.60;;;;;;;4.13;100.00;95074.00;5013905;28;20040;-74
2021/12/27 01:25:12;;;;;;;17.23;11.13;;;;;;;4.12;100.00;95074.94;5019187;28;20029;-74
2021/12/27 01:27:40;;;;;;;17.87;10.40;;;;;;;4.12;100.00;95074.94;5021174;28;20025;-74
2021/12/27 01:30:11;;;;;;;17.50;10.67;;;;;;;4.10;100.00;95071.69;5035843;28;20040;-74
2021/12/27 01:32:44;;;;;;;17.63;10.53;;;;;;;4.15;100.00;95076.44;5037809;28;20029;-74
2021/12/27 01:35:10;;;;;;;18.42;11.63;;;;;;;4.11;100.00;95075.09;5023278;28;20025;-73
2021/12/27 01:37:36;;;;;;;17.17;9.97;;;;;;;4.14;100.00;95075.63;5043836;28;20033;-75
2021/12/27 01:40:03;;;;;;;15.57;9.77;;;;;;;4.20;100.00;95076.81;5025462;28;20514;-74
2021/12/27 01:42:29;;;;;;;15.33;9.20;;;;;;;4.18;100.00;95079.56;5049127;28;20025;-74
2021/12/27 01:44:55;;;;;;;16.83;10.47;;;;;;;4.14;100.00;95085.22;5012598;28;20029;-74
2021/12/27 01:47:21;;;;;;;19.50;11.07;;;;;;;4.17;100.00;95077.13;5017902;28;20029;-74
2021/12/27 01:49:47;;;;;;;16.90;10.17;;;;;;;4.14;100.00;95077.41;4998927;28;20037;-75
2021/12/27 01:52:13;;;;;;;17.43;10.50;;;;;;;4.17;100.00;95085.75;5041068;28;20104;-75
2021/12/27 01:54:39;;;;;;;15.60;9.17;;;;;;;4.16;100.00;95084.09;5029208;28;20040;-74
2021/12/27 01:57:07;;;;;;;19.20;10.57;;;;;;;4.16;100.00;95091.91;5015895;28;20034;-75
2021/12/27 01:59:33;;;;;;;15.57;9.60;;;;;;;4.14;100.00;95085.22;5037193;28;20155;-74
2021/12/27 02:01:59;;;;;;;18.17;10.80;;;;;;;4.13;100.00;95084.41;5017709;28;20124;-75
2021/12/27 02:04:24;;;;;;;18.40;10.70;;;;;;;4.15;100.00;95081.63;5023386;28;20033;-75
2021/12/27 02:06:50;;;;;;;16.40;10.40;;;;;;;4.16;100.00;95084.09;5038640;28;20068;-74
2021/12/27 02:09:24;;;;;;;16.37;10.10;;;;;;;4.19;100.00;95081.22;5018036;28;20615;-74
2021/12/27 02:11:52;;;;;;;16.57;10.40;;;;;;;4.19;100.00;95081.22;5024352;28;20054;-75
2021/12/27 02:14:18;;;;;;;15.77;10.13;;;;;;;4.17;100.00;95079.72;5025763;28;20453;-75
2021/12/27 02:16:44;;;;;;;15.90;10.03;;;;;;;4.16;100.00;95086.72;5019643;28;20045;-74
2021/12/27 02:19:09;;;;;;;15.83;10.43;;;;;;;4.13;100.00;95091.41;5044312;28;20063;-74
2021/12/27 02:21:35;;;;;;;18.03;10.80;;;;;;;4.14;100.00;95087.81;5036662;28;20083;-74
2021/12/27 02:24:03;;;;;;;15.17;9.40;;;;;;;4.12;100.00;95085.34;5005115;28;20096;-75
2021/12/27 02:26:29;;;;;;;17.17;10.07;;;;;;;4.16;100.00;95080.69;5026860;28;20094;-75
2021/12/27 02:28:55;;;;;;;18.30;9.90;;;;;;;4.16;100.00;95081.50;5025173;28;20033;-74
2021/12/27 02:31:21;;;;;;;15.43;9.80;;;;;;;4.12;100.00;95074.94;5027312;28;20033;-75
2021/12/27 02:33:46;;;;;;;15.87;10.07;;;;;;;4.14;100.00;95072.22;5003829;28;20036;-74
2021/12/27 02:36:13;;;;;;;16.30;10.23;;;;;;;4.17;100.00;95071.91;5036396;28;20029;-74
2021/12/27 02:38:43;;;;;;;16.23;10.63;;;;;;;4.14;100.00;95069.59;5048977;28;20029;-74
2021/12/27 02:41:10;;;;;;;16.30;10.33;;;;;;;4.15;100.00;95066.84;5013881;28;20068;-74
2021/12/27 02:43:38;;;;;;;17.83;10.17;;;;;;;4.13;100.00;95067.97;5019654;28;20494;-75
2021/12/27 02:46:07;;;;;;;15.07;9.67;;;;;;;4.07;100.00;95068.56;5033280;28;20104;-74
2021/12/27 02:48:38;;;;;;;15.67;10.47;;;;;;;4.05;100.00;95070.50;5006047;28;20091;-74
2021/12/27 02:51:06;;;;;;;16.10;10.77;;;;;;;4.12;100.00;95063.72;5041023;28;20032;-75
2021/12/27 02:53:32;;;;;;;16.40;11.07;;;;;;;4.08;100.00;95072.78;5010520;28;20033;-74
2021/12/27 02:55:59;;;;;;;17.00;11.00;;;;;;;4.03;100.00;95070.66;5026168;28;20044;-74
2021/12/27 02:58:27;;;;;;;18.70;11.83;;;;;;;3.95;100.00;95075.75;5030891;28;20037;-75
2021/12/27 03:01:06;;;;;;;17.20;11.33;;;;;;;3.95;100.00;95079.16;5036835;28;20036;-75
2021/12/27 03:03:32;;;;;;;19.73;12.07;;;;;;;3.81;100.00;95066.66;5044075;28;20028;-75
2021/12/27 03:05:58;;;;;;;20.50;12.63;;;;;;;3.75;100.00;95068.06;5000823;28;20113;-74
2021/12/27 03:08:26;;;;;;;20.17;11.60;;;;;;;3.63;100.00;95064.03;5018992;28;20806;-74
2021/12/27 03:10:56;;;;;;;19.70;12.73;;;;;;;3.66;100.00;95066.34;5007829;28;20706;-74
2021/12/27 03:13:33;;;;;;;21.40;12.63;;;;;;;3.54;100.00;95065.72;5024413;28;20056;-75
2021/12/27 03:16:05;;;;;;;21.07;12.17;;;;;;;3.49;100.00;95054.13;5016193;28;20090;-75
2021/12/27 03:18:35;;;;;;;25.33;14.23;;;;;;;3.37;100.00;95057.88;5030714;28;20030;-74
2021/12/27 03:21:05;;;;;;;21.20;13.30;;;;;;;3.37;100.00;95065.69;5018181;28;20041;-74
2021/12/27 03:23:32;;;;;;;20.77;13.37;;;;;;;3.34;100.00;95065.97;5016197;28;20104;-74
2021/12/27 03:25:58;;;;;;;26.00;14.20;;;;;;;3.25;100.00;95057.25;5044834;28;20025;-74
2021/12/27 03:28:24;;;;;;;21.87;13.53;;;;;;;3.23;100.00;95070.38;5005464;28;20546;-74
2021/12/27 03:30:51;;;;;;;25.03;13.77;;;;;;;3.20;100.00;95064.66;5042059;28;20037;-75
2021/12/27 03:33:22;;;;;;;21.57;13.27;;;;;;;3.18;100.00;95061.38;5042035;28;20057;-74
2021/12/27 03:36:00;;;;;;;22.07;13.93;;;;;;;3.12;100.00;95060.19;5028935;28;20083;-74
2021/12/27 03:38:49;;;;;;;22.03;13.93;;;;;;;3.11;100.00;95052.50;5021092;28;20045;-74
2021/12/27 03:41:19;;;;;;;21.83;12.53;;;;;;;3.04;100.00;95052.25;5006705;28;20096;-74
2021/12/27 03:43:45;;;;;;;24.00;14.03;;;;;;;2.99;100.00;95055.31;5029705;28;20064;-74
2021/12/27 03:46:11;;;;;;;21.77;12.67;;;;;;;2.98;100.00;95058.84;5015830;28;20487;-74
2021/12/27 03:48:37;;;;;;;21.03;13.53;;;;;;;2.97;100.00;95054.59;5031637;28;20025;-74
2021/12/27 03:51:05;;;;;;;20.80;12.80;;;;;;;2.95;100.00;95056.56;5018867;28;20613;-73
2021/12/27 03:53:32;;;;;;;22.30;13.67;;;;;;;2.93;100.00;95052.44;5022399;28;20039;-75
2021/12/27 03:55:57;;;;;;;21.23;13.57;;;;;;;2.89;100.00;95053.69;5021391;28;20018;-74
2021/12/27 04:03:18;;;;;;;23.93;13.97;;;;;;;2.83;100.00;95049.88;5043494;28;20504;-74
2021/12/27 04:05:45;;;;;;;23.97;13.63;;;;;;;2.78;100.00;95042.53;5013810;28;20026;-74
2021/12/27 04:08:11;;;;;;;23.07;14.07;;;;;;;2.81;100.00;95049.19;5043649;28;20079;-74
2021/12/27 04:10:39;;;;;;;21.27;13.47;;;;;;;2.83;100.00;95045.50;5033578;28;20037;-74
2021/12/27 04:13:07;;;;;;;23.67;14.27;;;;;;;2.84;100.00;95054.91;5041513;28;20134;-74
2021/12/27 04:15:33;;;;;;;20.07;12.47;;;;;;;2.82;100.00;95050.84;5025687;28;20029;-74
2021/12/27 04:17:59;;;;;;;24.63;13.83;;;;;;;2.77;100.00;95053.84;5026444;28;20030;-74
2021/12/27 04:20:25;;;;;;;23.53;14.53;;;;;;;2.81;100.00;95054.38;5021484;28;20047;-73
2021/12/27 04:22:51;;;;;;;22.50;13.33;;;;;;;2.78;100.00;95050.31;5040584;28;20086;-73
2021/12/27 04:25:20;;;;;;;26.00;13.73;;;;;;;2.91;100.00;95044.78;5013175;28;20032;-74
2021/12/27 04:27:47;;;;;;;21.63;12.70;;;;;;;2.91;100.00;95042.19;4986610;28;20064;-73
2021/12/27 04:30:13;;;;;;;23.43;14.17;;;;;;;2.95;100.00;95048.75;5018331;28;20028;-74
2021/12/27 04:32:40;;;;;;;19.20;11.97;;;;;;;3.00;100.00;95046.53;5013703;28;20029;-74
2021/12/27 04:35:06;;;;;;;23.20;13.73;;;;;;;3.04;100.00;95042.69;5026031;28;20056;-74
2021/12/27 04:37:33;;;;;;;22.93;13.90;;;;;;;3.03;100.00;95048.84;5016598;28;20108;-74
2021/12/27 04:40:03;;;;;;;21.87;13.87;;;;;;;3.07;100.00;95047.59;5028764;28;20074;-74
2021/12/27 04:42:31;;;;;;;22.93;13.67;;;;;;;3.07;100.00;95042.41;5014323;28;20112;-73
2021/12/27 04:45:00;;;;;;;23.33;14.17;;;;;;;3.11;100.00;95049.91;5024476;28;20370;-74
2021/12/27 04:47:25;;;;;;;23.10;14.87;;;;;;;3.16;100.00;95039.94;5046962;28;20033;-74
2021/12/27 04:49:52;;;;;;;22.73;14.17;;;;;;;3.20;100.00;95046.47;5016596;28;20088;-74
2021/12/27 04:52:18;;;;;;;23.60;14.77;;;;;;;3.28;100.00;95038.75;5036509;28;20026;-74
2021/12/27 04:54:44;;;;;;;24.47;15.03;;;;;;;3.30;100.00;95039.44;5026407;28;20052;-74
2021/12/27 04:57:10;;;;;;;21.50;13.20;;;;;;;3.25;100.00;95039.06;5019653;28;20064;-73
2021/12/27 04:59:36;;;;;;;21.67;13.70;;;;;;;3.24;100.00;95046.03;5006869;28;20049;-74
2021/12/27 05:02:03;;;;;;;22.67;14.07;;;;;;;3.24;100.00;95035.63;5018611;28;20022;-73
2021/12/27 05:04:29;;;;;;;22.03;13.90;;;;;;;3.29;100.00;95030.03;5008026;28;20480;-74
2021/12/27 05:06:55;;;;;;;24.13;14.60;;;;;;;3.29;100.00;95030.84;5019231;28;20865;-73
2021/12/27 05:09:20;;;;;;;24.93;14.00;;;;;;;3.25;100.00;95024.31;5010081;28;20033;-74
2021/12/27 05:11:46;;;;;;;24.80;14.07;;;;;;;3.30;100.00;95029.06;5044186;28;20032;-74
2021/12/27 05:14:12;;;;;;;19.90;12.60;;;;;;;3.22;100.00;95027.19;5032526;28;20086;-73
2021/12/27 05:16:38;;;;;;;22.03;14.17;;;;;;;3.20;100.00;95031.69;5010364;28;20549;-74
2021/12/27 05:19:03;;;;;;;20.43;12.63;;;;;;;3.13;100.00;95029.81;5020141;28;20040;-74
2021/12/27 05:21:29;;;;;;;21.07;12.33;;;;;;;3.09;100.00;95029.28;5016921;28;20021;-74
2021/12/27 05:23:55;;;;;;;20.47;12.83;;;;;;;3.03;100.00;95025.47;5029253;28;20033;-74
2021/12/27 05:26:21;;;;;;;18.93;12.20;;;;;;;3.11;100.00;95019.56;5027709;28;20232;-74
2021/12/27 05:28:47;;;;;;;21.57;14.10;;;;;;;3.05;100.00;95023.56;5006254;28;20034;-74
2021/12/27 05:31:12;;;;;;;23.20;15.13;;;;;;;3.01;100.00;95017.00;5025248;28;20512;-74
2021/12/27 05:33:38;;;;;;;21.97;13.47;;;;;;;2.96;100.00;95024.41;5023667;28;20033;-74
2021/12/27 05:36:04;;;;;;;21.67;14.30;;;;;;;2.91;100.00;95020.59;5002457;28;20029;-74
2021/12/27 05:38:30;;;;;;;18.77;12.33;;;;;;;2.91;100.00;95011.03;5011435;28;20717;-74
2021/12/27 05:40:56;;;;;;;20.87;12.63;;;;;;;2.84;100.00;95015.16;5000158;28;20073;-74
2021/12/27 05:43:23;;;;;;;21.00;12.47;;;;;;;2.77;100.00;95014.09;5010519;28;20028;-74
2021/12/27 05:45:50;;;;;;;20.30;12.47;;;;;;;2.80;100.00;95012.03;5022286;28;20503;-74
2021/12/27 05:48:16;;;;;;;20.90;13.40;;;;;;;2.74;100.00;95001.38;5017366;28;20057;-74
2021/12/27 05:50:43;;;;;;;21.50;14.23;;;;;;;2.78;100.00;95007.94;5033840;28;20052;-74
2021/12/27 05:53:10;;;;;;;22.37;14.53;;;;;;;2.72;100.00;95003.31;4995368;28;20042;-74
2021/12/27 05:55:35;;;;;;;20.30;12.90;;;;;;;2.78;100.00;95000.97;5037093;28;20040;-74
2021/12/27 05:58:02;;;;;;;22.80;14.53;;;;;;;2.77;100.00;94995.91;5030386;28;20021;-74
2021/12/27 06:00:28;;;;;;;20.57;13.23;;;;;;;2.81;100.00;95000.66;5042790;28;20500;-74
2021/12/27 06:02:54;;;;;;;19.60;12.80;;;;;;;2.77;100.00;95004.53;5023510;28;20029;-74
2021/12/27 06:05:22;;;;;;;20.13;12.53;;;;;;;2.68;100.00;95001.94;5015223;28;20457;-74
2021/12/27 06:07:48;;;;;;;20.57;13.03;;;;;;;2.70;100.00;94998.25;5008366;28;20041;-74
2021/12/27 06:10:14;;;;;;;19.20;12.00;;;;;;;2.68;100.00;95001.94;4997909;28;20033;-74
2021/12/27 06:12:40;;;;;;;20.23;13.33;;;;;;;2.64;100.00;95008.38;5002342;28;20041;-74
2021/12/27 06:15:07;;;;;;;19.40;12.90;;;;;;;2.50;100.00;94997.50;5010915;28;20017;-74
2021/12/27 06:17:34;;;;;;;18.07;12.27;;;;;;;2.39;100.00;95009.81;5012169;28;20038;-74
2021/12/27 06:20:04;;;;;;;18.10;11.57;;;;;;;2.36;100.00;95008.31;5036369;28;20028;-74
2021/12/27 06:22:31;;;;;;;20.30;13.10;;;;;;;2.40;100.00;95014.84;5022452;28;20025;-74
2021/12/27 06:25:00;;;;;;;18.53;11.73;;;;;;;2.47;100.00;95002.97;5008903;28;20798;-74
2021/12/27 06:27:26;;;;;;;19.53;12.03;;;;;;;2.54;100.00;95004.03;5005189;28;20036;-74
2021/12/27 06:29:51;;;;;;;19.93;12.53;;;;;;;2.66;100.00;95009.06;5024254;28;20036;-74
2021/12/27 06:32:17;;;;;;;21.07;13.73;;;;;;;2.70;100.00;95007.84;4995560;28;20041;-74
2021/12/27 06:34:43;;;;;;;22.03;14.63;;;;;;;2.70;100.00;95005.22;5038213;28;20124;-74
2021/12/27 06:37:08;;;;;;;22.50;13.03;;;;;;;2.82;100.00;94998.91;4987880;28;20107;-74
2021/12/27 06:39:34;;;;;;;23.80;13.97;;;;;;;2.83;100.00;94995.34;5007383;28;20071;-74
2021/12/27 06:42:00;;;;;;;21.30;13.17;;;;;;;2.84;100.00;94994.38;5025539;28;20116;-73
2021/12/27 06:44:26;;;;;;;19.37;12.30;;;;;;;2.86;100.00;94997.66;5028700;28;20025;-74
2021/12/27 06:46:52;;;;;;;23.87;14.13;;;;;;;2.90;100.00;94996.41;5028874;28;20566;-74
2021/12/27 06:49:18;;;;;;;20.40;12.90;;;;;;;2.91;100.00;94985.06;5019248;28;20033;-74
2021/12/27 06:51:44;;;;;;;21.10;12.60;;;;;;;2.90;100.00;94988.63;5028845;28;20033;-74
2021/12/27 06:54:09;;;;;;;24.57;13.97;;;;;;;2.93;100.00;94984.94;5015311;28;20025;-76
2021/12/27 06:56:35;;;;;;;19.30;12.57;;;;;;;2.97;100.00;94992.28;5004066;28;20095;-74
2021/12/27 06:59:02;;;;;;;22.77;12.73;;;;;;;2.99;100.00;94990.38;5029146;28;20032;-74
2021/12/27 07:01:29;;;;;;;20.90;12.43;;;;;;;2.94;100.00;94999.53;5005058;28;20041;-74
2021/12/27 07:03:54;;;;;;;20.97;12.83;;;;;;;2.98;100.00;94996.50;5022129;28;20029;-74
2021/12/27 07:06:20;;;;;;;22.87;12.40;;;;;;;3.02;100.00;94987.50;4997862;28;20036;-74
2021/12/27 07:08:47;;;;;;;20.67;13.87;;;;;;;3.06;100.00;94990.63;5018396;28;20036;-75
2021/12/27 07:11:14;;;;;;;21.80;13.73;;;;;;;3.02;100.00;94989.28;5007305;28;20032;-74
2021/12/27 07:13:41;;;;;;;20.27;13.23;;;;;;;3.03;100.00;94989.13;5011766;28;20047;-74
2021/12/27 07:16:06;;;;;;;24.17;13.23;;;;;;;3.06;100.00;94990.63;5028593;28;20029;-74
2021/12/27 07:18:32;;;;;;;25.30;13.80;;;;;;;3.05;100.00;94984.63;5010477;28;20025;-74
2021/12/27 07:20:57;;;;;;;20.63;12.70;;;;;;;3.04;100.00;94982.94;4994839;28;20140;-74
2021/12/27 07:23:24;;;;;;;22.00;13.57;;;;;;;3.01;100.00;94990.22;5022081;28;20068;-74
2021/12/27 07:25:50;;;;;;;21.03;12.83;;;;;;;3.12;100.00;94981.41;5042865;28;20047;-74
2021/12/27 07:28:15;;;;;;;25.60;14.73;;;;;;;3.11;100.00;94979.78;5042001;28;20143;-74
2021/12/27 07:30:42;;;;;;;20.80;12.77;;;;;;;3.09;100.00;94982.53;5024956;28;20083;-74
2021/12/27 07:33:08;;;;;;;24.13;14.00;;;;;;;3.09;100.00;94976.53;5012349;28;20029;-74
2021/12/27 07:35:35;;;;;;;19.73;12.33;;;;;;;3.07;100.00;94977.47;5027335;28;20126;-74
2021/12/27 07:38:02;;;;;;;19.40;11.80;;;;;;;3.08;100.00;94980.88;5008865;28;20545;-74
2021/12/27 07:40:28;;;;;;;19.93;13.27;;;;;;;3.15;100.00;94975.94;5034595;28;20033;-74
2021/12/27 07:42:54;;;;;;;19.50;13.03;;;;;;;3.18;100.00;94975.66;5020614;28;20033;-74
2021/12/27 07:45:20;;;;;;;20.77;13.00;;;;;;;3.21;100.00;94970.16;4991916;28;20029;-73
2021/12/27 07:47:46;;;;;;;19.00;12.87;;;;;;;3.26;100.00;94978.34;5010158;28;20040;-74
2021/12/27 07:50:12;;;;;;;22.10;13.73;;;;;;;3.27;100.00;94972.19;5012849;28;20739;-74
2021/12/27 07:52:38;;;;;;;23.30;14.17;;;;;;;3.29;100.00;94963.28;5012498;28;20041;-74
2021/12/27 07:55:05;;;;;;;24.07;15.00;;;;;;;3.29;100.00;94975.47;5000713;28;20025;-74
2021/12/27 07:57:31;;;;;;;24.10;14.17;;;;;;;3.34;100.00;94970.63;5011640;28;20057;-74
2021/12/27 07:59:56;;;;;;;21.00;13.10;;;;;;;3.39;100.00;94970.22;5015075;28;20056;-73
2021/12/27 08:02:22;;;;;;;22.47;14.13;;;;;;;3.45;100.00;94969.59;5004561;28;20029;-74
2021/12/27 08:04:48;;;;;;;26.90;14.67;;;;;;;3.41;100.00;94966.47;5017078;28;20802;-76
2021/12/27 08:07:13;;;;;;;24.60;14.93;;;;;;;3.43;100.00;94964.56;5018516;28;21692;-74
2021/12/27 08:09:39;;;;;;;23.00;16.00;;;;;;;3.48;100.00;94967.53;5025559;28;20044;-75
2021/12/27 08:12:06;;;;;;;23.83;14.33;;;;;;;3.47;100.00;94960.72;4986035;28;20030;-74
2021/12/27 08:14:32;;;;;;;26.33;15.10;;;;;;;3.49;100.00;94961.38;5015603;28;20052;-74
2021/12/27 08:16:59;;;;;;;25.40;14.27;;;;;;;3.52;100.00;94961.09;5005239;28;20791;-74
2021/12/27 08:19:24;;;;;;;25.13;15.17;;;;;;;3.63;100.00;94960.06;5009437;28;20095;-74
2021/12/27 08:21:50;;;;;;;27.00;17.07;;;;;;;3.97;100.00;94957.59;5017129;28;20037;-74
2021/12/27 08:24:16;;;;;;;26.10;15.97;;;;;;;4.54;100.00;94956.38;4994447;28;20029;-74
2021/12/27 08:26:42;;;;;;;24.40;14.57;;;;;;;4.58;100.00;94965.50;4990631;28;20055;-74
2021/12/27 08:29:10;;;;;;;26.40;13.97;;;;;;;4.36;100.00;94957.25;5011195;28;20036;-74
2021/12/27 08:31:36;;;;;;;23.33;13.87;;;;;;;4.34;100.00;94956.56;5035458;28;20402;-74
2021/12/27 08:34:02;;;;;;;29.87;16.80;;;;;;;4.29;100.00;94955.38;5010436;28;20029;-74
2021/12/27 08:36:28;;;;;;;33.40;18.13;;;;;;;4.32;100.00;94958.50;4998770;28;20095;-74
2021/12/27 08:38:54;;;;;;;31.93;16.07;;;;;;;4.34;100.00;94959.19;5013354;28;20025;-74
2021/12/27 08:41:27;;;;;;;27.07;15.43;;;;;;;4.37;100.00;94973.69;4998164;28;20029;-75
2021/12/27 08:43:55;;;;;;;24.13;14.40;;;;;;;4.34;100.00;94964.38;5001468;28;20811;-75
2021/12/27 08:46:21;;;;;;;29.43;17.17;;;;;;;4.40;100.00;94957.75;5013041;28;20030;-75
2021/12/27 08:48:51;;;;;;;26.57;15.13;;;;;;;4.35;100.00;94966.00;5016175;28;20052;-75
2021/12/27 08:51:17;;;;;;;25.07;14.83;;;;;;;4.39;100.00;94963.91;5001718;28;20033;-75
2021/12/27 08:53:43;;;;;;;24.53;15.03;;;;;;;4.41;100.00;94962.81;5005286;28;20073;-75
2021/12/27 08:56:09;;;;;;;24.80;14.57;;;;;;;4.40;100.00;94961.19;5013958;28;20069;-74
2021/12/27 08:58:34;;;;;;;22.23;13.77;;;;;;;4.44;100.00;94965.09;5008242;28;20036;-74
2021/12/27 09:01:00;;;;;;;24.33;13.20;;;;;;;4.51;100.00;94960.09;5013202;28;20478;-74
2021/12/27 09:03:26;;;;;;;21.23;12.53;;;;;;;4.54;100.00;94965.00;5009785;28;20021;-75
2021/12/27 09:05:52;;;;;;;22.03;12.63;;;;;;;4.62;100.00;94966.84;5011298;28;20029;-75
2021/12/27 09:08:17;;;;;;;23.67;13.10;;;;;;;4.64;100.00;94963.09;4990593;28;20032;-74
2021/12/27 09:10:43;;;;;;;22.37;13.27;;;;;;;4.76;100.00;94952.41;4997281;28;20025;-74
2021/12/27 09:13:09;;;;;;;22.57;13.47;;;;;;;4.78;100.00;94958.31;5023488;28;20064;-75
2021/12/27 09:15:34;;;;;;;20.93;13.43;;;;;;;5.06;100.00;94958.91;5004166;28;20025;-75
2021/12/27 09:18:00;;;;;;;21.03;12.50;;;;;;;5.19;100.00;94960.09;5027282;28;20418;-75
2021/12/27 09:20:27;;;;;;;23.30;13.53;;;;;;;5.19;100.00;94957.50;5009883;28;20706;-75
2021/12/27 09:22:54;;;;;;;21.07;13.70;;;;;;;5.15;100.00;94964.00;4990607;28;20021;-74
2021/12/27 09:25:20;;;;;;;19.87;11.70;;;;;;;5.25;100.00;94974.31;4990750;28;20037;-74
2021/12/27 09:27:46;;;;;;;20.60;12.83;;;;;;;5.27;100.00;94969.75;4998139;28;20098;-74
2021/12/27 09:30:12;;;;;;;20.10;12.50;;;;;;;5.17;100.00;94969.88;5002041;28;20133;-75
2021/12/27 09:32:38;;;;;;;17.43;11.87;;;;;;;5.22;100.00;94974.63;5014521;28;20047;-75
2021/12/27 09:35:05;;;;;;;19.63;12.40;;;;;;;5.21;100.00;94978.22;5002258;28;20045;-75
2021/12/27 09:37:32;;;;;;;21.33;13.37;;;;;;;5.18;100.00;94979.31;5025192;28;20040;-75
2021/12/27 09:39:57;;;;;;;19.17;12.90;;;;;;;5.16;100.00;94976.09;5001832;28;20091;-75
2021/12/27 09:42:26;;;;;;;21.00;13.43;;;;;;;5.16;100.00;94972.63;4990573;28;20060;-75
2021/12/27 09:44:54;;;;;;;20.77;13.73;;;;;;;5.27;100.00;94972.38;4991599;28;20077;-75
2021/12/27 09:47:20;;;;;;;19.50;13.37;;;;;;;5.40;100.00;94961.50;4986154;28;20028;-75
2021/12/27 09:49:47;;;;;;;22.47;13.47;;;;;;;5.44;100.00;94965.41;5006994;28;20029;-75
2021/12/27 09:52:13;;;;;;;20.30;12.47;;;;;;;5.56;100.00;94969.34;5001682;28;20487;-74
2021/12/27 09:54:40;;;;;;;19.67;12.57;;;;;;;5.63;100.00;94966.91;4997574;28;20071;-75
2021/12/27 09:57:06;;;;;;;21.17;13.30;;;;;;;5.68;100.00;94962.03;5001772;28;20585;-76
2021/12/27 09:59:31;;;;;;;20.90;13.07;;;;;;;5.77;100.00;94955.88;5018087;28;20554;-76
2021/12/27 10:01:57;;;;;;;22.07;13.80;;;;;;;5.74;100.00;94952.78;5018676;28;20035;-75
2021/12/27 10:04:23;;;;;;;20.97;14.17;;;;;;;5.81;100.00;94948.53;5020492;28;20033;-75
2021/12/27 10:06:51;;;;;;;18.30;11.80;;;;;;;5.77;100.00;94936.78;5000896;28;20592;-75
2021/12/27 10:09:17;;;;;;;16.60;10.53;;;;;;;5.84;100.00;94925.56;5026391;28;20021;-75
2021/12/27 10:11:44;;;;;;;16.23;10.37;;;;;;;5.76;100.00;94929.94;5017219;28;20057;-75
2021/12/27 10:14:18;;;;;;;17.60;10.90;;;;;;;5.84;100.00;94927.34;5016470;28;20731;-76
2021/12/27 10:16:51;;;;;;;15.33;9.50;;;;;;;6.09;100.00;94930.78;5011385;28;20041;-75
2021/12/27 10:19:19;;;;;;;17.33;11.27;;;;;;;6.24;100.00;94923.94;5016283;28;20028;-74
2021/12/27 10:21:47;;;;;;;16.70;10.47;;;;;;;6.05;100.00;94927.69;5024092;28;20585;-74
2021/12/27 10:24:17;;;;;;;16.10;10.67;;;;;;;5.99;100.00;94935.38;5010864;28;20117;-75
2021/12/27 10:26:45;;;;;;;15.53;11.57;;;;;;;5.89;100.00;94933.69;5010816;28;20100;-74
2021/12/27 10:29:18;;;;;;;15.37;10.43;;;;;;;5.95;100.00;94923.63;5002019;28;20303;-74
2021/12/27 10:31:50;;;;;;;17.33;11.13;;;;;;;5.98;100.00;94921.50;5023741;28;20048;-74
2021/12/27 10:34:16;;;;;;;15.53;10.07;;;;;;;5.99;100.00;94920.50;5005331;28;20057;-74
2021/12/27 10:37:17;;;;;;;15.47;10.13;;;;;;;6.21;100.00;94915.63;5014888;28;20037;-75
2021/12/27 10:40:06;;;;;;;16.20;10.03;;;;;;;6.30;100.00;94912.00;5022057;28;20033;-76
2021/12/27 10:42:50;;;;;;;15.90;10.60;;;;;;;6.43;100.00;94903.66;5016579;28;20032;-75
2021/12/27 10:45:21;;;;;;;15.68;9.82;;;;;;;6.19;100.00;94905.34;4999980;28;20060;-76
2021/12/27 10:47:52;;;;;;;16.17;10.60;;;;;;;5.87;100.00;94901.75;4995145;28;20037;-75
2021/12/27 10:50:25;;;;;;;16.23;9.93;;;;;;;5.91;100.00;94908.25;4998987;28;20590;-76
2021/12/27 10:52:55;;;;;;;15.10;10.63;;;;;;;5.89;100.00;94902.38;5002737;28;20091;-75
2021/12/27 10:55:27;;;;;;;15.77;9.90;;;;;;;6.14;100.00;94899.81;5001102;28;20072;-75
2021/12/27 10:58:09;;;;;;;15.30;9.50;;;;;;;6.18;100.00;94897.69;5010007;28;20499;-75
2021/12/27 11:00:36;;;;;;;14.97;9.20;;;;;;;6.34;100.00;94898.47;4999683;28;20029;-76
2021/12/27 11:03:02;;;;;;;12.03;8.20;;;;;;;6.30;100.00;94894.53;5014541;28;20013;-77
2021/12/27 11:05:30;;;;;;;13.40;8.63;;;;;;;6.34;100.00;94895.06;5009047;28;20032;-79
2021/12/27 11:08:03;;;;;;;13.93;9.00;;;;;;;6.22;100.00;94893.75;5021532;28;20039;-77
2021/12/27 11:10:33;;;;;;;14.32;9.90;;;;;;;6.05;100.00;94887.75;5017499;28;20032;-79
2021/12/27 11:12:59;;;;;;;15.40;10.23;;;;;;;5.84;100.00;94878.59;5020348;28;20022;-79
2021/12/27 11:15:35;;;;;;;14.47;9.83;;;;;;;5.96;100.00;94883.50;5016932;28;20075;-78
2021/12/27 11:18:03;;;;;;;14.67;9.83;;;;;;;6.04;100.00;94881.72;4992182;28;20022;-77
2021/12/27 11:20:28;;;;;;;15.23;10.37;;;;;;;6.35;100.00;94881.81;5006222;28;20109;-76
2021/12/27 11:22:59;;;;;;;18.17;11.40;;;;;;;6.22;100.00;94884.13;5012670;28;20574;-76
2021/12/27 11:25:32;;;;;;;15.03;10.60;;;;;;;6.27;100.00;94881.84;5014899;28;20544;-77
2021/12/27 11:28:00;;;;;;;17.90;12.15;;;;;;;6.04;100.00;94871.28;5003268;28;20033;-78
2021/12/27 11:30:30;;;;;;;15.63;10.83;;;;;;;6.12;100.00;94867.81;5047047;28;20090;-79